createdAt,value
2023-04-24T00:00:19.207Z,2.13
2023-04-24T00:02:48.343Z,1.70
2023-04-24T00:05:18.362Z,1.70
2023-04-24T00:07:46.983Z,1.80
2023-04-24T00:10:15.035Z,1.80
2023-04-24T00:12:43.359Z,1.83
2023-04-24T00:15:12.629Z,1.77
2023-04-24T00:17:40.792Z,1.97
2023-04-24T00:20:11.294Z,2.00
2023-04-24T00:22:40.954Z,1.73
2023-04-24T00:25:09.749Z,1.77
2023-04-24T00:27:38.285Z,1.87
2023-04-24T00:30:07.547Z,2.27
2023-04-24T00:32:35.554Z,1.63
2023-04-24T00:35:03.580Z,2.00
2023-04-24T00:37:31.532Z,2.13
2023-04-24T00:40:01.034Z,2.07
2023-04-24T00:42:29.201Z,1.87
2023-04-24T00:44:58.828Z,2.10
2023-04-24T00:47:27.819Z,1.90
2023-04-24T00:49:55.817Z,1.87
2023-04-24T00:52:25.319Z,2.10
2023-04-24T00:54:53.375Z,2.00
2023-04-24T00:57:24.670Z,2.07
2023-04-24T00:59:53.374Z,2.07
2023-04-24T01:02:23.510Z,2.23
2023-04-24T01:04:52.449Z,1.90
2023-04-24T01:07:22.332Z,2.10
2023-04-24T01:09:52.368Z,1.90
2023-04-24T01:12:21.833Z,2.00
2023-04-24T01:14:49.897Z,1.97
2023-04-24T01:17:17.882Z,2.20
2023-04-24T01:19:46.695Z,2.73
2023-04-24T01:22:17.264Z,2.70
2023-04-24T01:25:34.992Z,2.80
2023-04-24T01:28:03.316Z,2.90
2023-04-24T01:30:32.189Z,3.50
2023-04-24T01:33:01.461Z,3.30
2023-04-24T01:35:29.645Z,3.60
2023-04-24T01:37:58.989Z,4.00
2023-04-24T01:40:27.996Z,4.57
2023-04-24T01:42:56.336Z,4.30
2023-04-24T01:45:24.315Z,4.13
2023-04-24T01:47:52.781Z,4.70
2023-04-24T01:50:21.052Z,5.20
2023-04-24T01:52:49.016Z,4.93
2023-04-24T01:55:18.394Z,5.00
2023-04-24T01:57:46.623Z,4.97
2023-04-24T02:00:15.401Z,4.80
2023-04-24T02:02:46.499Z,3.80
2023-04-24T02:05:16.092Z,4.30
2023-04-24T02:07:44.101Z,4.30
2023-04-24T02:10:13.166Z,4.17
2023-04-24T02:12:42.485Z,3.77
2023-04-24T02:15:11.266Z,3.80
2023-04-24T02:17:39.459Z,3.90
2023-04-24T02:20:09.145Z,3.40
2023-04-24T02:22:37.137Z,3.50
2023-04-24T02:25:06.108Z,3.43
2023-04-24T02:27:34.088Z,3.53
2023-04-24T02:30:04.022Z,3.40
2023-04-24T02:32:32.285Z,3.63
2023-04-24T02:35:00.362Z,3.70
2023-04-24T02:37:28.444Z,3.27
2023-04-24T02:39:56.378Z,3.80
2023-04-24T02:42:24.349Z,3.40
2023-04-24T02:44:52.695Z,3.70
2023-04-24T02:47:22.013Z,3.67
2023-04-24T02:49:49.930Z,3.53
2023-04-24T02:52:17.938Z,3.93
2023-04-24T02:54:45.942Z,3.67
2023-04-24T02:57:13.950Z,3.70
2023-04-24T02:59:42.114Z,3.83
2023-04-24T03:02:10.297Z,3.83
2023-04-24T03:04:41.170Z,4.00
2023-04-24T03:07:09.284Z,4.07
2023-04-24T03:09:37.208Z,3.90
2023-04-24T03:12:05.314Z,3.90
2023-04-24T03:14:33.271Z,4.30
2023-04-24T03:17:01.569Z,4.23
2023-04-24T03:19:29.529Z,4.20
2023-04-24T03:21:59.030Z,4.50
2023-04-24T03:24:29.000Z,4.03
2023-04-24T03:26:57.876Z,4.30
2023-04-24T03:29:25.863Z,4.10
2023-04-24T03:31:53.850Z,4.40
2023-04-24T03:34:21.820Z,4.40
2023-04-24T03:36:49.782Z,3.73
2023-04-24T03:39:19.090Z,3.57
2023-04-24T03:41:47.295Z,3.30
2023-04-24T03:44:15.565Z,3.60
2023-04-24T03:46:43.586Z,3.53
2023-04-24T03:49:11.540Z,3.60
2023-04-24T03:51:39.519Z,3.10
2023-04-24T03:54:07.464Z,3.10
2023-04-24T03:56:36.755Z,3.23
2023-04-24T03:59:04.717Z,3.30
2023-04-24T04:01:32.803Z,3.07
2023-04-24T04:04:00.817Z,2.80
2023-04-24T04:06:29.588Z,3.33
2023-04-24T04:08:57.533Z,3.40
2023-04-24T04:11:25.909Z,3.50
2023-04-24T04:13:55.728Z,3.70
2023-04-24T04:16:23.752Z,4.27
2023-04-24T04:18:51.775Z,4.10
2023-04-24T04:21:19.733Z,3.40
2023-04-24T04:23:47.668Z,3.50
2023-04-24T04:26:15.630Z,3.60
2023-04-24T04:28:45.529Z,3.30
2023-04-24T04:31:14.853Z,3.70
2023-04-24T04:33:42.795Z,3.07
2023-04-24T04:36:10.765Z,2.90
2023-04-24T04:38:39.328Z,3.17
2023-04-24T04:41:08.157Z,3.10
2023-04-24T04:43:37.355Z,3.00
2023-04-24T04:46:05.459Z,2.73
2023-04-24T04:48:34.866Z,3.37
2023-04-24T04:51:02.805Z,3.10
2023-04-24T04:53:30.882Z,3.60
2023-04-24T04:55:58.876Z,3.13
2023-04-24T04:58:26.880Z,3.40
2023-04-24T05:00:54.831Z,3.50
2023-04-24T05:03:22.901Z,3.63
2023-04-24T05:05:52.290Z,3.07
2023-04-24T05:08:27.113Z,2.90
2023-04-24T05:10:56.329Z,3.10
2023-04-24T05:15:55.243Z,2.97
2023-04-24T05:18:23.207Z,3.27
2023-04-24T05:20:52.509Z,3.10
2023-04-24T05:23:20.500Z,3.37
2023-04-24T05:25:48.521Z,3.20
2023-04-24T05:28:17.557Z,3.33
2023-04-24T05:30:45.697Z,3.33
2023-04-24T05:33:15.115Z,3.50
2023-04-24T05:35:47.506Z,3.40
2023-04-24T05:38:18.813Z,3.20
2023-04-24T05:40:46.774Z,3.57
2023-04-24T05:43:14.882Z,4.07
2023-04-24T05:45:42.832Z,3.80
2023-04-24T05:48:10.910Z,3.53
2023-04-24T05:50:38.897Z,3.70
2023-04-24T05:53:08.100Z,3.67
2023-04-24T05:55:37.855Z,3.10
2023-04-24T05:58:05.838Z,3.60
2023-04-24T06:00:34.755Z,4.47
2023-04-24T06:03:04.774Z,3.87
2023-04-24T06:05:33.246Z,4.60
2023-04-24T06:08:01.266Z,4.93
2023-04-24T06:10:29.346Z,5.07
2023-04-24T06:13:01.671Z,5.13
2023-04-24T06:15:31.361Z,4.97
2023-04-24T06:17:59.855Z,4.37
2023-04-24T06:20:28.192Z,4.93
2023-04-24T06:22:56.306Z,4.90
2023-04-24T06:25:27.122Z,5.30
2023-04-24T06:27:55.739Z,5.20
2023-04-24T06:30:25.642Z,4.70
2023-04-24T06:32:53.749Z,5.40
2023-04-24T06:35:21.748Z,5.03
2023-04-24T06:37:49.887Z,5.60
2023-04-24T06:40:19.513Z,5.57
2023-04-24T06:42:47.565Z,5.40
2023-04-24T06:45:15.649Z,5.40
2023-04-24T06:47:44.991Z,5.83
2023-04-24T06:50:13.544Z,5.73
2023-04-24T06:52:42.380Z,5.43
2023-04-24T06:55:12.039Z,5.70
2023-04-24T06:57:40.018Z,5.27
2023-04-24T07:00:10.332Z,5.60
2023-04-24T07:02:38.621Z,5.37
2023-04-24T07:05:09.396Z,5.33
2023-04-24T07:07:38.830Z,5.30
2023-04-24T07:10:07.878Z,5.80
2023-04-24T07:12:36.692Z,5.07
2023-04-24T07:15:05.271Z,5.40
2023-04-24T07:17:33.342Z,4.97
2023-04-24T07:20:01.383Z,4.77
2023-04-24T07:22:30.695Z,5.07
2023-04-24T07:24:58.697Z,4.70
2023-04-24T07:27:27.510Z,4.57
2023-04-24T07:29:55.534Z,4.87
2023-04-24T07:32:23.520Z,4.90
2023-04-24T07:34:51.461Z,4.67
2023-04-24T07:37:19.462Z,4.77
2023-04-24T07:39:48.952Z,4.60
2023-04-24T07:42:16.917Z,5.20
2023-04-24T07:44:45.036Z,4.90
2023-04-24T07:47:13.054Z,4.90
2023-04-24T07:49:41.152Z,5.53
2023-04-24T07:52:09.322Z,5.53
2023-04-24T07:54:38.109Z,4.33
2023-04-24T07:57:09.209Z,4.43
2023-04-24T07:59:37.251Z,4.77
2023-04-24T08:02:05.538Z,5.00
2023-04-24T08:04:33.662Z,5.13
2023-04-24T08:07:01.721Z,4.67
2023-04-24T08:09:29.703Z,5.03
2023-04-24T08:11:58.196Z,4.53
2023-04-24T08:14:27.574Z,4.90
2023-04-24T08:16:57.136Z,4.50
2023-04-24T08:19:25.080Z,4.73
2023-04-24T08:21:53.019Z,4.40
2023-04-24T08:24:21.016Z,4.83
2023-04-24T08:26:51.209Z,4.63
2023-04-24T08:29:19.198Z,4.50
2023-04-24T08:31:48.541Z,4.30
2023-04-24T08:34:16.549Z,3.93
2023-04-24T08:36:47.406Z,3.93
2023-04-24T08:39:15.851Z,4.10
2023-04-24T08:41:46.293Z,4.27
2023-04-24T08:44:17.113Z,4.00
2023-04-24T08:46:46.725Z,3.83
2023-04-24T08:49:17.634Z,4.13
2023-04-24T08:51:47.919Z,3.93
2023-04-24T08:54:16.031Z,4.17
2023-04-24T08:56:46.360Z,4.40
2023-04-24T08:59:15.301Z,3.70
2023-04-24T09:01:43.697Z,3.50
2023-04-24T09:04:13.362Z,3.20
2023-04-24T09:06:44.036Z,3.53
2023-04-24T09:09:13.682Z,3.37
2023-04-24T09:11:42.424Z,2.93
2023-04-24T09:14:12.158Z,3.10
2023-04-24T09:16:40.154Z,3.50
2023-04-24T09:19:08.160Z,3.50
2023-04-24T09:21:37.060Z,2.97
2023-04-24T09:24:08.318Z,3.37
2023-04-24T09:26:38.424Z,3.17
2023-04-24T09:29:06.636Z,3.30
2023-04-24T09:31:34.641Z,3.60
2023-04-24T09:34:08.288Z,3.10
2023-04-24T09:36:39.378Z,3.50
2023-04-24T09:39:11.973Z,3.47
2023-04-24T09:41:46.901Z,3.60
2023-04-24T09:44:16.471Z,3.07
2023-04-24T09:46:45.695Z,3.07
2023-04-24T09:49:17.639Z,3.00
2023-04-24T09:51:45.747Z,3.20
2023-04-24T09:54:18.287Z,2.80
2023-04-24T09:56:48.600Z,2.67
2023-04-24T09:59:17.756Z,2.70
2023-04-24T10:01:46.552Z,3.10
2023-04-24T10:04:19.534Z,3.00
2023-04-24T10:06:49.842Z,2.40
2023-04-24T10:09:20.101Z,2.20
2023-04-24T10:11:49.804Z,2.60
2023-04-24T10:14:23.732Z,2.37
2023-04-24T10:16:54.653Z,2.60
2023-04-24T10:19:23.948Z,2.47
2023-04-24T10:21:52.120Z,2.40
2023-04-24T10:24:22.513Z,2.20
2023-04-24T10:26:50.966Z,2.43
2023-04-24T10:29:20.776Z,2.00
2023-04-24T10:31:48.832Z,2.00
2023-04-24T10:34:18.749Z,1.80
2023-04-24T10:36:52.705Z,1.40
2023-04-24T10:39:27.351Z,1.30
2023-04-24T10:41:58.493Z,1.40
2023-04-24T10:44:27.765Z,1.10
2023-04-24T10:46:57.684Z,1.23
2023-04-24T10:49:31.023Z,0.83
2023-04-24T10:52:04.213Z,1.10
2023-04-24T10:54:37.730Z,0.80
2023-04-24T10:57:33.666Z,0.80
2023-04-24T11:00:20.350Z,0.70
2023-04-24T11:02:53.893Z,0.60
2023-04-24T11:05:25.075Z,0.93
2023-04-24T11:08:16.952Z,0.30
2023-04-24T11:10:56.735Z,0.30
2023-04-24T11:13:25.460Z,0.27
2023-04-24T11:16:14.500Z,0.50
2023-04-24T11:18:46.907Z,0.40
2023-04-24T11:21:15.489Z,0.30
2023-04-24T11:23:43.476Z,0.37
2023-04-24T11:26:20.950Z,0.30
2023-04-24T11:28:50.319Z,0.43
2023-04-24T11:31:38.461Z,0.43
2023-04-24T11:34:10.742Z,0.60
2023-04-24T11:36:39.074Z,0.80
2023-04-24T11:39:07.520Z,0.57
2023-04-24T11:41:37.337Z,0.50
2023-04-24T11:44:08.060Z,0.50
2023-04-24T11:46:36.359Z,0.63
2023-04-24T11:49:04.812Z,0.47
2023-04-24T11:51:43.813Z,0.47
2023-04-24T11:54:19.252Z,0.63
2023-04-24T11:56:49.005Z,0.87
2023-04-24T11:59:17.157Z,0.40
2023-04-24T12:01:46.473Z,0.67
2023-04-24T12:04:15.381Z,0.60
2023-04-24T12:07:01.332Z,0.67
2023-04-24T12:09:29.366Z,0.70
2023-04-24T12:11:59.049Z,0.70
2023-04-24T12:14:27.192Z,0.60
2023-04-24T12:16:55.186Z,0.70
2023-04-24T12:19:24.343Z,0.77
2023-04-24T12:22:10.212Z,0.70
2023-04-24T12:24:57.719Z,0.70
2023-04-24T12:27:27.514Z,0.90
2023-04-24T12:29:57.851Z,0.70
2023-04-24T12:32:28.214Z,0.90
2023-04-24T12:34:57.202Z,0.70
2023-04-24T12:37:26.181Z,1.03
2023-04-24T12:40:01.784Z,0.90
2023-04-24T12:42:32.258Z,1.00
2023-04-24T12:45:01.759Z,1.00
2023-04-24T12:47:30.463Z,1.17
2023-04-24T12:49:58.484Z,1.10
2023-04-24T12:52:27.609Z,1.20
2023-04-24T12:54:56.988Z,1.60
2023-04-24T12:57:25.221Z,1.40
2023-04-24T12:59:55.726Z,1.47
2023-04-24T13:02:24.200Z,1.83
2023-04-24T13:04:53.043Z,1.60
2023-04-24T13:07:21.375Z,2.00
2023-04-24T13:09:50.912Z,2.00
2023-04-24T13:12:19.588Z,2.47
2023-04-24T13:14:48.518Z,5.90
2023-04-24T13:17:18.294Z,2.40
2023-04-24T13:19:46.795Z,3.20
2023-04-24T13:22:15.207Z,2.60
2023-04-24T13:24:43.260Z,2.30
2023-04-24T13:27:11.429Z,2.47
2023-04-24T13:29:39.616Z,2.43
2023-04-24T13:32:07.934Z,2.27
2023-04-24T13:34:37.817Z,2.33
2023-04-24T13:37:06.891Z,2.30
2023-04-24T13:39:34.903Z,2.60
2023-04-24T13:42:04.926Z,2.37
2023-04-24T13:44:33.364Z,2.60
2023-04-24T13:47:01.547Z,2.70
2023-04-24T13:49:29.692Z,2.67
2023-04-24T13:51:59.277Z,2.80
2023-04-24T13:54:27.386Z,3.00
2023-04-24T13:56:55.774Z,3.20
2023-04-24T13:59:23.712Z,3.10
2023-04-24T14:01:51.780Z,3.57
2023-04-24T14:04:20.060Z,3.33
2023-04-24T14:06:48.112Z,3.47
2023-04-24T14:09:17.424Z,3.40
2023-04-24T14:11:45.452Z,3.10
2023-04-24T14:14:13.464Z,6.37
2023-04-24T14:16:41.580Z,7.83
2023-04-24T14:19:09.834Z,5.37
2023-04-24T14:21:37.809Z,7.23
2023-04-24T14:24:05.872Z,6.10
2023-04-24T14:26:35.678Z,7.17
2023-04-24T14:29:13.972Z,8.80
2023-04-24T14:31:43.273Z,7.77
2023-04-24T14:34:11.447Z,8.77
2023-04-24T14:36:39.463Z,6.00
2023-04-24T14:39:08.363Z,4.50
2023-04-24T14:41:38.462Z,4.37
2023-04-24T14:44:06.785Z,4.00
2023-04-24T14:46:34.988Z,4.03
2023-04-24T14:49:03.096Z,4.10
2023-04-24T14:51:31.440Z,4.60
2023-04-24T14:54:00.147Z,4.30
2023-04-24T14:56:28.173Z,4.77
2023-04-24T14:58:57.550Z,4.90
2023-04-24T15:01:26.386Z,4.67
2023-04-24T15:03:54.925Z,4.73
2023-04-24T15:06:23.213Z,4.07
2023-04-24T15:08:51.227Z,4.17
2023-04-24T15:11:19.984Z,4.47
2023-04-24T15:13:48.273Z,4.53
2023-04-24T15:16:18.202Z,4.30
2023-04-24T15:18:46.272Z,4.50
2023-04-24T15:21:14.624Z,4.27
2023-04-24T15:23:42.624Z,4.20
2023-04-24T15:26:10.642Z,6.57
2023-04-24T15:28:38.631Z,6.63
2023-04-24T15:31:06.731Z,10.07
2023-04-24T15:33:36.298Z,6.80
2023-04-24T15:36:04.717Z,5.53
2023-04-24T15:38:33.244Z,6.63
2023-04-24T15:41:01.237Z,4.80
2023-04-24T15:43:32.012Z,15.20
2023-04-24T15:46:00.019Z,17.60
2023-04-24T15:48:29.146Z,7.60
2023-04-24T15:50:59.570Z,9.50
2023-04-24T15:53:28.424Z,13.30
2023-04-24T15:55:57.105Z,6.00
2023-04-24T15:58:25.104Z,6.73
2023-04-24T16:00:54.115Z,6.67
2023-04-24T16:03:22.593Z,5.57
2023-04-24T16:05:50.787Z,9.07
2023-04-24T16:08:21.241Z,9.17
2023-04-24T16:10:49.239Z,8.23
2023-04-24T16:13:18.630Z,5.93
2023-04-24T16:15:47.381Z,6.47
2023-04-24T16:18:15.387Z,6.10
2023-04-24T16:20:43.424Z,6.27
2023-04-24T16:23:11.425Z,5.17
2023-04-24T16:25:40.801Z,6.23
2023-04-24T16:28:08.885Z,6.30
2023-04-24T16:30:37.538Z,5.90
2023-04-24T16:33:07.482Z,6.33
2023-04-24T16:35:35.551Z,17.93
2023-04-24T16:38:04.680Z,7.10
2023-04-24T16:40:32.771Z,11.33
2023-04-24T16:43:02.104Z,6.40
2023-04-24T16:45:30.043Z,13.03
2023-04-24T16:47:58.126Z,5.50
2023-04-24T16:50:26.220Z,5.93
2023-04-24T16:52:54.191Z,6.97
2023-04-24T16:55:22.140Z,8.10
2023-04-24T16:57:50.158Z,5.47
2023-04-24T17:00:20.027Z,11.90
2023-04-24T17:02:49.622Z,23.13
2023-04-24T17:05:19.355Z,15.07
2023-04-24T17:07:47.399Z,16.50
2023-04-24T17:10:15.384Z,13.87
2023-04-24T17:12:43.351Z,11.13
2023-04-24T17:15:11.817Z,5.53
2023-04-24T17:17:42.646Z,7.83
2023-04-24T17:20:21.148Z,7.30
2023-04-24T17:22:49.818Z,6.87
2023-04-24T17:25:17.935Z,12.77
2023-04-24T17:27:46.496Z,11.83
2023-04-24T17:30:15.582Z,12.37
2023-04-24T17:32:45.126Z,14.63
2023-04-24T17:35:13.287Z,13.40
2023-04-24T17:37:41.348Z,17.20
2023-04-24T17:40:10.589Z,11.63
2023-04-24T17:42:41.460Z,14.27
2023-04-24T17:45:10.816Z,6.80
2023-04-24T17:47:38.874Z,4.73
2023-04-24T17:50:08.997Z,4.40
2023-04-24T17:52:36.950Z,5.33
2023-04-24T17:55:05.485Z,4.90
2023-04-24T17:57:33.504Z,5.43
2023-04-24T18:00:01.457Z,8.17
2023-04-24T18:02:29.515Z,6.27
2023-04-24T18:04:57.547Z,5.20
2023-04-24T18:07:26.881Z,5.60
2023-04-24T18:09:56.325Z,6.40
2023-04-24T18:12:24.604Z,4.17
2023-04-24T18:14:57.265Z,3.80
2023-04-24T18:17:34.455Z,5.17
2023-04-24T18:20:02.409Z,4.00
2023-04-24T18:22:31.926Z,4.10
2023-04-24T18:25:00.073Z,3.93
2023-04-24T18:27:30.956Z,3.90
2023-04-24T18:29:59.347Z,3.90
2023-04-24T18:32:27.676Z,3.93
2023-04-24T18:34:55.872Z,3.83
2023-04-24T18:37:23.856Z,4.67
2023-04-24T18:39:54.308Z,13.13
2023-04-24T18:42:22.862Z,4.47
2023-04-24T18:44:51.332Z,4.63
2023-04-24T18:47:19.351Z,3.60
2023-04-24T18:49:47.303Z,3.80
2023-04-24T18:52:15.290Z,4.60
2023-04-24T18:54:43.269Z,4.20
2023-04-24T18:57:12.558Z,4.90
2023-04-24T18:59:40.565Z,4.50
2023-04-24T19:02:09.337Z,4.30
2023-04-24T19:04:37.578Z,4.30
2023-04-24T19:07:05.672Z,4.93
2023-04-24T19:09:33.763Z,10.40
2023-04-24T19:12:02.800Z,16.13
2023-04-24T19:14:32.198Z,14.77
2023-04-24T19:17:00.176Z,14.30
2023-04-24T19:19:28.901Z,16.90
2023-04-24T19:21:56.929Z,15.73
2023-04-24T19:24:26.069Z,10.80
2023-04-24T19:26:54.004Z,7.10
2023-04-24T19:29:22.021Z,7.40
2023-04-24T19:31:52.840Z,7.33
2023-04-24T19:34:20.903Z,9.13
2023-04-24T19:36:48.884Z,15.53
2023-04-24T19:39:17.270Z,12.13
2023-04-24T19:41:45.276Z,12.77
2023-04-24T19:44:14.703Z,14.30
2023-04-24T19:46:42.838Z,16.00
2023-04-24T19:49:13.274Z,15.43
2023-04-24T19:51:41.218Z,12.07
2023-04-24T19:54:09.772Z,8.63
2023-04-24T19:56:37.761Z,10.87
2023-04-24T19:59:05.757Z,9.60
2023-04-24T20:01:33.861Z,8.77
2023-04-24T20:04:02.278Z,8.93
2023-04-24T20:06:31.783Z,9.90
2023-04-24T20:08:59.740Z,10.07
2023-04-24T20:11:27.732Z,11.17
2023-04-24T20:13:56.494Z,10.47
2023-04-24T20:16:24.607Z,10.03
2023-04-24T20:18:52.605Z,11.90
2023-04-24T20:21:20.912Z,9.57
2023-04-24T20:23:52.016Z,10.30
2023-04-24T20:26:20.026Z,7.73
2023-04-24T20:28:48.256Z,8.53
2023-04-24T20:31:16.730Z,7.70
2023-04-24T20:33:45.592Z,6.47
2023-04-24T20:36:13.630Z,7.90
2023-04-24T20:38:41.548Z,7.07
2023-04-24T20:41:10.913Z,7.90
2023-04-24T20:43:38.904Z,5.10
2023-04-24T20:46:07.105Z,5.00
2023-04-24T20:48:35.600Z,5.10
2023-04-24T20:51:03.617Z,4.60
2023-04-24T20:53:31.610Z,4.57
2023-04-24T20:55:59.570Z,4.70
2023-04-24T20:58:28.927Z,4.43
2023-04-24T21:00:56.933Z,4.70
2023-04-24T21:03:24.944Z,5.13
2023-04-24T21:05:53.140Z,5.47
2023-04-24T21:08:21.092Z,6.47
2023-04-24T21:10:49.054Z,5.03
2023-04-24T21:13:16.978Z,5.50
2023-04-24T21:15:46.337Z,5.13
2023-04-24T21:18:14.370Z,4.83
2023-04-24T21:20:42.536Z,5.07
2023-04-24T21:23:10.508Z,5.53
2023-04-24T21:25:39.856Z,5.20
2023-04-24T21:28:07.855Z,5.60
2023-04-24T21:30:35.870Z,5.50
2023-04-24T21:33:05.354Z,4.90
2023-04-24T21:35:33.836Z,5.77
2023-04-24T21:38:01.772Z,6.50
2023-04-24T21:40:30.213Z,5.60
2023-04-24T21:42:58.207Z,5.10
2023-04-24T21:45:26.439Z,4.53
2023-04-24T21:47:54.454Z,4.90
2023-04-24T21:50:23.918Z,4.70
2023-04-24T21:52:51.940Z,4.40
2023-04-24T21:55:21.262Z,5.27
2023-04-24T21:57:49.386Z,6.30
2023-04-24T22:00:17.872Z,7.27
2023-04-24T22:02:45.950Z,6.53
2023-04-24T22:05:15.787Z,6.70
2023-04-24T22:07:49.045Z,7.00
2023-04-24T22:10:18.485Z,5.80
2023-04-24T22:12:46.512Z,5.57
2023-04-24T22:15:14.509Z,4.83
2023-04-24T22:17:43.599Z,6.00
2023-04-24T22:20:12.972Z,7.27
2023-04-24T22:22:40.933Z,6.13
2023-04-24T22:25:11.170Z,4.87
2023-04-24T22:27:39.104Z,4.70
2023-04-24T22:30:09.215Z,4.90
2023-04-24T22:32:38.114Z,6.17
2023-04-24T22:35:06.614Z,5.70
2023-04-24T22:37:34.954Z,5.23
2023-04-24T22:40:03.616Z,5.00
2023-04-24T22:42:32.987Z,5.33
2023-04-24T22:45:01.195Z,4.87
2023-04-24T22:47:29.147Z,4.80
2023-04-24T22:49:58.487Z,4.87
2023-04-24T22:52:28.824Z,4.53
2023-04-24T22:54:56.838Z,4.87
2023-04-24T22:57:24.863Z,4.83
2023-04-24T22:59:54.750Z,4.40
2023-04-24T23:02:22.986Z,4.73
2023-04-24T23:04:51.526Z,4.40
2023-04-24T23:07:19.531Z,4.60
2023-04-24T23:09:47.482Z,4.60
2023-04-24T23:12:15.491Z,4.70
2023-04-24T23:14:43.479Z,4.40
2023-04-24T23:17:12.774Z,4.73
2023-04-24T23:19:40.738Z,5.03
2023-04-24T23:22:08.704Z,5.00
2023-04-24T23:24:36.697Z,4.40
2023-04-24T23:27:04.828Z,4.43
2023-04-24T23:29:32.779Z,4.63
2023-04-24T23:32:01.939Z,4.83
2023-04-24T23:34:33.930Z,4.87
2023-04-24T23:37:02.328Z,4.67
2023-04-24T23:39:30.520Z,4.47
2023-04-24T23:41:59.706Z,4.93
2023-04-24T23:44:27.631Z,4.20
2023-04-24T23:46:55.602Z,4.60
2023-04-24T23:49:23.558Z,4.70
2023-04-24T23:51:53.161Z,4.83
2023-04-24T23:54:21.157Z,4.90
2023-04-24T23:56:49.163Z,4.77
2023-04-24T23:59:17.099Z,4.77
